logo
App data

Space Robot Samurai Zombie Slayer

We are not alone in the universe, its filled with Zombies! To combat them mankind invented their most efficient weapon yet: the Space Robot Samurai Zombie Slayer. ONLY YOU can pilot the powerful Space Robot Samurai Zombie Slayer to fight the Space Zombie horde!
Store | Hub | SteamDB | Site
Developer: Brandon Brizzi Publisher: Brandon Brizzi
Genre: Action, Indie
Languages: English
Tags: Indie (23), Action (23), Zombies (6)
Category: Single-player, Steam Achievements, Full controller support, Steam Leaderboards
Release date: May 21, 2015
Price: $1.99
Owners: 0 .. 20,000
Followers: 105
Playtime total: 00:04 (average) 00:04 (median)

Steam Spy is still in beta, so expect major bugs.

Owners data:

Access restricted.

This feature is only available to users with special access rights. Sorry.

If you want to proceed, you need to register or log in first and then back Steam Spy on Patreon. Look for Indie or Pro pledge.

Don't forget to use the same email as on Steam Spy!

Audience in 2 weeks:

Access restricted.

This feature is only available to users with special access rights. Sorry.

If you want to proceed, you need to register or log in first and then back Steam Spy on Patreon. Look for Indie or Pro pledge.

Don't forget to use the same email as on Steam Spy!

Peak daily concurrent players:

CCU data courtesy of SteamDB. Used with permission.

Hourly concurrent players:

YouTube:

The views data is based on top 50 videos uploaded last week. Actual number of views might be more than the number shown.

The displayed number of videos uploaded yesterday is limited to 50, so if there were more videos uploaded, the number will still show 50.

If the game has commonly used word as its name (like "FEAR" or "Volume") its number of Youtube views might be wrong.

Games similar to this one:

# Game Release date
Price
Score rank
(Userscore / Metascore)
Owners
Players
Playtime (Median)
1 MadSpace: To Hell and Beyond Jan 1, 1997 $5.99N/A (N/A)0 .. 20,0000%00:00 (00:00)
2 Seven Kingdoms: Ancient Adversaries Jun 8, 1998 $5.9999% (98%)0 .. 20,0000%00:00 (00:00)
3 Lazerbait Oct 13, 2016 Free98% (97%)50,000 .. 100,0000%00:00 (00:00)
4 Hide & Spook: The Haunted Alchemist Oct 28, 2016 FreeN/A (N/A)0 .. 20,0000%00:00 (00:00)
5 Bot Vice Jul 11, 2016 $9.9994% (95%)50,000 .. 100,0000%00:00 (00:00)
6 Wuppo Sep 29, 2016 $14.9994% (95%/78%)200,000 .. 500,0000.69%00:35 (00:46)
7 Star Trek: Judgment Rites May 8, 2015 $9.99N/A (N/A)0 .. 20,0000%00:00 (00:00)
8 Fragile Allegiance Mar 31, 1997 $4.99N/A (N/A)0 .. 20,0000%00:00 (00:00)
9 NotCoD May 19, 2016 $4.9990% (93%)0 .. 20,0000%00:00 (00:00)
10 Normality Jun 30, 1996 $0.8990% (93%)200,000 .. 500,0000.22%03:39 (01:30)
11 Super Mutant Alien Assault Aug 20, 2015 $2.4990% (93%)0 .. 20,0000%00:00 (00:00)
12 ESCHATOS Sep 18, 2015 $14.9990% (93%)0 .. 20,0000%00:00 (00:00)
13 Tornuffalo Dec 12, 2016 $0.99N/A (N/A)0 .. 20,0000%00:00 (00:00)
14 Chicken Invaders 3 Jun 8, 2015 $4.9987% (92%)20,000 .. 50,0005.26%00:09 (00:06)
15 Super Flippin' Phones Feb 18, 2016 $2.99N/A (N/A)0 .. 20,0000%00:00 (00:00)
16 Gun Bombers Sep 21, 2016 $7.99N/A (N/A)0 .. 20,0000%00:00 (00:00)
17 Fractured Soul Feb 5, 2015 $9.99N/A (N/A)0 .. 20,0000%00:00 (00:00)
18 Westward IV: All Aboard Feb 16, 2010 $6.99N/A (N/A)0 .. 20,0000%00:00 (00:00)
19 Kohan II: Kings of War Sep 21, 2004 $9.9984% (91%/81%)20,000 .. 50,0007.14%06:05 (02:01)
20 Apocalypse: Party's Over May 30, 2016 N/A81% (90%)0 .. 20,0000%00:00 (00:00)
21 Explosionade Sep 23, 2015 $3.99N/A (N/A)0 .. 20,0000%00:00 (00:00)
22 Bezier Mar 3, 2016 $9.9981% (90%)0 .. 20,0000%00:00 (00:00)
23 Weird Hero Nov 18, 2016 $3.9981% (90%)0 .. 20,0000%00:00 (00:00)
24 Death's Hangover Jan 20, 2017 $4.9979% (89%)50,000 .. 100,0000%00:00 (00:00)
25 Lethal VR Nov 8, 2016 $14.9975% (87%/66%)0 .. 20,0000%00:00 (00:00)
26 Felt Tip Circus Apr 5, 2016 $7.99N/A (N/A)0 .. 20,0000%00:00 (00:00)
27 Alien Robot Monsters Sep 9, 2015 $5.9972% (86%)0 .. 20,0000%00:00 (00:00)
28 SPINGUN Nov 11, 2016 $1.9972% (86%)0 .. 20,0000%00:00 (00:00)
29 Rocket Fist May 12, 2016 $4.9972% (86%)0 .. 20,0000%00:00 (00:00)
30 Azure Striker Gunvolt Aug 28, 2015 $14.9972% (86%)20,000 .. 50,0000%00:00 (00:00)
31 Snow Fortress Dec 16, 2016 $14.99N/A (N/A)0 .. 20,0000%00:00 (00:00)
32 Zero Punctuation: Hatfall - Hatters Gonna Hat Edition Nov 20, 2015 $4.9972% (86%)0 .. 20,0000%00:00 (00:00)
33 Gurgamoth Feb 16, 2016 $4.9970% (85%)20,000 .. 50,0000.51%02:13 (00:44)
34 Vertigo Dec 22, 2016 $14.9968% (84%)0 .. 20,0000%00:00 (00:00)
35 2 Ninjas 1 Cup Feb 3, 2017 $0.9968% (84%)0 .. 20,0000%00:00 (00:00)
36 Moorhuhn Invasion (Crazy Chicken Invasion) Feb 20, 2015 $3.99N/A (N/A)0 .. 20,0000%00:00 (00:00)
37 Tethered Feb 27, 2017 $24.9966% (83%)0 .. 20,0000%00:00 (00:00)
38 ORCS May 20, 2016 $1.9966% (83%)20,000 .. 50,0001.33%00:01 (00:00)
39 Eador. Imperium Jan 27, 2017 $19.9966% (83%)20,000 .. 50,0000%00:00 (00:00)
40 Gunman Taco Truck Jan 28, 2017 $2.9964% (82%)0 .. 20,0000%00:00 (00:00)
41 VR Invaders Dec 15, 2016 $17.99N/A (N/A)0 .. 20,0000%00:00 (00:00)
42 Enemy Mar 17, 2015 $14.9964% (82%)0 .. 20,0000%00:00 (00:00)
43 Radiant Defense Jul 11, 2014 $4.9963% (81%)0 .. 20,0000%00:00 (00:00)
44 SHOCK TROOPERS May 18, 2016 $7.9963% (81%)20,000 .. 50,0000%00:00 (00:00)
45 ARCADE GAME SERIES: Ms. PAC-MAN Apr 19, 2016 $3.9963% (81%)20,000 .. 50,0000%00:00 (00:00)
46 VERSUS SQUAD Oct 26, 2016 $7.9963% (81%)50,000 .. 100,0001.12%00:04 (00:01)
47 Umihara Kawase Shun: Steam Edition Nov 24, 2015 $11.99N/A (N/A)0 .. 20,0000%00:00 (00:00)
48 Paganitzu Oct 1, 1991 $4.99N/A (N/A)20,000 .. 50,0000%00:00 (00:00)
49 Caladrius Blaze Jan 11, 2017 $24.9959% (79%)0 .. 20,0000%00:00 (00:00)
50 Daedalus - No Escape Oct 28, 2014 $4.9959% (79%)20,000 .. 50,0000%00:00 (00:00)
51 Mysterium: A Psychic Clue Game Jan 12, 2017 $6.9959% (79%)50,000 .. 100,0000%00:00 (00:00)
52 Gnomes Vs. Fairies: Greckel's Quest Jul 1, 2016 $9.9959% (79%)0 .. 20,0000%00:00 (00:00)
53 LUMBERMANCER Jun 28, 2016 $2.99N/A (N/A)0 .. 20,0000%00:00 (00:00)
54 Klang Sep 22, 2016 $14.9958% (78%/71%)0 .. 20,0000%00:00 (00:00)
55 Xenocide Aug 28, 2015 $2.99N/A (N/A)0 .. 20,0000%00:00 (00:00)
56 Age of Barbarian Extended Cut May 20, 2016 $12.9958% (78%)0 .. 20,00012.5%00:49 (00:16)
57 THE LAST BLADE Aug 31, 2016 $9.9958% (78%)20,000 .. 50,0000%00:00 (00:00)
58 IrreVRsible May 24, 2016 $1.99N/A (N/A)0 .. 20,0000%00:00 (00:00)
59 Starchaser: Priestess of the Night Sky Jul 24, 2015 $9.99N/A (N/A)0 .. 20,0000%00:00 (00:00)
60 Auralux: Constellations Jun 1, 2016 $9.9956% (77%)0 .. 20,00033.33%00:16 (00:08)
61 Earthworm Jim 2 Apr 30, 1996 $13.9956% (77%)20,000 .. 50,0000%00:00 (00:00)
62 Cluck Yegger in Escape From The Planet of The Poultroid Nov 9, 2015 $2.99N/A (N/A)0 .. 20,0000%00:00 (00:00)
63 Disney Infinity 3.0: Gold Edition Dec 9, 2016 $29.9956% (77%)0 .. 20,0005%02:20 (01:26)
64 Death by Game Show Jan 22, 2016 $9.9955% (76%)20,000 .. 50,0000%00:00 (00:00)
65 Stars in Shadow Jan 19, 2017 $24.9955% (76%/75%)0 .. 20,0000%00:00 (00:00)
66 Tank Battle: 1944 Mar 1, 2016 $9.99N/A (N/A)0 .. 20,0002.27%02:01 (00:40)
67 Boulder Dash - 30th Anniversary Sep 13, 2016 $14.9953% (75%)0 .. 20,0000%00:00 (00:00)
68 Fortify Apr 8, 2016 $4.9953% (75%)0 .. 20,0000%00:00 (00:00)
69 Onechanbara Z2: Chaos Jun 2, 2016 $39.9953% (75%)0 .. 20,0004.17%00:11 (00:03)
70 Mekazoo Nov 14, 2016 $9.9953% (75%/80%)0 .. 20,0000%00:00 (00:00)
71 Curse of the Crescent Isle DX Aug 21, 2015 $0.9953% (75%)0 .. 20,0000%00:00 (00:00)
72 Bionic Commando Jul 28, 2009 $9.9952% (74%/69%)200,000 .. 500,0000%00:00 (00:00)
73 Smell Of Death Jul 4, 2016 $9.9952% (74%)0 .. 20,0000%00:00 (00:00)
74 Loot or Die Sep 13, 2016 $0.99N/A (N/A)0 .. 20,0000%00:00 (00:00)
75 Castle Torgeath: Descent into Darkness Jan 22, 2016 $7.9949% (72%)0 .. 20,0005.56%01:36 (00:50)
76 Quick Draw Jan 10, 2017 $9.99N/A (N/A)0 .. 20,0000%00:00 (00:00)
77 Crewsaders Nov 17, 2016 $2.99N/A (N/A)0 .. 20,0000%00:00 (00:00)
78 Auro: A Monster-Bumping Adventure Apr 13, 2016 $6.9949% (72%)0 .. 20,0000%00:00 (00:00)
79 Madness Cubed May 12, 2016 $1.9948% (71%)50,000 .. 100,0000%00:00 (00:00)
80 Aces of the Luftwaffe May 6, 2015 $4.9948% (71%)0 .. 20,0000%00:00 (00:00)
81 FIVE: Champions of Canaan Sep 27, 2016 $3.9948% (71%)20,000 .. 50,0000%00:00 (00:00)
82 Scourge of War: Waterloo Nov 19, 2015 $49.9947% (70%)0 .. 20,0000%00:00 (00:00)
83 Phoning Home Feb 7, 2017 $19.9947% (70%/61%)20,000 .. 50,0003.74%02:16 (02:39)
84 Battle Fantasia -Revised Edition- Jul 7, 2015 $14.9947% (70%)20,000 .. 50,0000%00:00 (00:00)
85 Highland Warriors Jan 20, 2003 $7.99N/A (N/A/58%)0 .. 20,0000%00:00 (00:00)
86 The Next World Mar 7, 2016 $12.9946% (69%)20,000 .. 50,0000%00:00 (00:00)
87 Space Food Truck Mar 25, 2016 $9.9946% (69%)20,000 .. 50,0000%00:00 (00:00)
88 Death Dojo Nov 8, 2016 Free44% (68%)0 .. 20,0002.38%00:04 (00:01)
89 Global Outbreak: Doomsday Edition Aug 11, 2014 $8.9944% (68%)0 .. 20,0001.49%05:03 (01:41)
90 V ARRR Jun 10, 2016 $9.9944% (68%)0 .. 20,0000%00:00 (00:00)
91 Little King's Story Aug 5, 2016 $19.9944% (68%/62%)0 .. 20,0006.67%01:46 (00:35)
92 Zombie City Defense 2 Aug 19, 2016 $9.9942% (66%)0 .. 20,0000%00:00 (00:00)
93 1775: Rebellion Sep 29, 2016 $24.99N/A (N/A)0 .. 20,0000%00:00 (00:00)
94 King Lucas Dec 1, 2016 $3.3442% (66%)20,000 .. 50,0000%00:00 (00:00)
95 Back in 1995 Apr 28, 2016 $9.9942% (66%/52%)0 .. 20,0000%00:00 (00:00)
96 Tank Brawl Apr 20, 2016 $4.99N/A (N/A)0 .. 20,0000%00:00 (00:00)
97 John Wick Chronicles Feb 9, 2017 $19.9941% (65%/57%)0 .. 20,0000%00:00 (00:00)
98 Disney Pirates of the Caribbean: At Worlds End May 22, 2007 $19.9940% (64%)0 .. 20,0000%00:00 (00:00)
99 Link Apr 22, 2016 $4.99N/A (N/A)0 .. 20,0000%00:00 (00:00)
100 Element TD Jan 20, 2017 $0.99N/A (N/A)0 .. 20,0000%00:00 (00:00)
101 Fair Strike Feb 5, 2004 $3.99N/A (N/A/56%)0 .. 20,0000%00:00 (00:00)
102 ROM: Extraction Dec 7, 2016 $19.9939% (63%)0 .. 20,0000%00:00 (00:00)
103 SunAge: Battle for Elysium Dec 15, 2014 $14.9939% (63%)0 .. 20,0000%00:00 (00:00)
104 Toxic Bunny HD Jul 18, 2014 $5.99N/A (N/A)0 .. 20,0000%00:00 (00:00)
105 Warhammer 40,000: Armageddon - Da Orks Aug 18, 2016 $19.99N/A (N/A)0 .. 20,0000%00:00 (00:00)
106 Resilience Wave Survival Dec 23, 2015 $9.9938% (62%)0 .. 20,0000%00:00 (00:00)
107 Civil War: 1863 Jun 21, 2016 $9.99N/A (N/A)0 .. 20,0001.89%02:02 (00:40)
108 Eclipse: New Dawn for the Galaxy Sep 16, 2016 N/A37% (61%)0 .. 20,0000%00:00 (00:00)
109 Defend Your Crypt Jul 21, 2016 $2.99N/A (N/A)0 .. 20,0000%00:00 (00:00)
110 MacGuffin Feb 18, 2016 $2.99N/A (N/A)0 .. 20,0000%00:00 (00:00)
111 Lolly Joe Aug 5, 2016 $2.99N/A (N/A)0 .. 20,0000%00:00 (00:00)
112 Rabbit Island Jul 13, 2016 $1.99N/A (N/A)0 .. 20,0000%00:00 (00:00)
113 Police Tactics: Imperio Sep 7, 2016 $24.9935% (59%)0 .. 20,0000%00:00 (00:00)
114 Big Buck Hunter Arcade Oct 25, 2016 $9.99N/A (N/A)0 .. 20,0000%00:00 (00:00)
115 Prophour23 Oct 22, 2014 $9.9934% (58%)20,000 .. 50,0000%00:00 (00:00)
116 Sir! I'd Like To Report A Bug! Oct 19, 2015 $1.99N/A (N/A)0 .. 20,0000%00:00 (00:00)
117 VR Journey Dec 15, 2016 $2.9934% (57%)20,000 .. 50,0000.59%01:30 (00:30)
118 Life in Bunker Feb 25, 2016 $15.9933% (56%)0 .. 20,0000%00:00 (00:00)
119 reconquest Dec 16, 2016 $11.9932% (55%)0 .. 20,0000%00:00 (00:00)
120 Princess Kaguya: Legend of the Moon Warrior Aug 4, 2015 $10.9930% (52%)0 .. 20,0000%00:00 (00:00)
121 Megamagic: Wizards of the Neon Age Apr 20, 2016 $9.9930% (52%/67%)20,000 .. 50,0001.32%02:43 (00:54)
122 And So It Was Feb 29, 2016 N/AN/A (N/A)0 .. 20,0000%00:00 (00:00)
123 Planar Conquest May 30, 2016 $19.9929% (50%/53%)20,000 .. 50,0002.04%02:50 (00:56)
124 B.A.D Battle Armor Division Aug 18, 2015 $5.99N/A (N/A)0 .. 20,0000%00:00 (00:00)
125 Cubesis Aug 22, 2014 $4.99N/A (N/A)0 .. 20,0000%00:00 (00:00)
126 Scapeland Mar 31, 2016 $3.9929% (50%)0 .. 20,0000%00:00 (00:00)
127 World War II GI Mar 15, 1999 $6.99N/A (N/A)0 .. 20,0000%00:00 (00:00)
128 Police Quest: SWAT Dec 15, 2016 $5.99N/A (N/A)0 .. 20,0000%00:00 (00:00)
129 Disposable Heroes Oct 1, 2015 $4.9926% (44%)20,000 .. 50,0000%00:00 (00:00)
130 Infinium Strike Jul 14, 2016 $9.9926% (43%)0 .. 20,0008.33%02:18 (00:46)
131 The Fleets of Sol Apr 1, 2016 N/AN/A (N/A)0 .. 20,0000%00:00 (00:00)
132 RYAN BLACK Jan 14, 2017 $2.99N/A (N/A)20,000 .. 50,0000%00:00 (00:00)
133 Cavern Escape Feb 20, 2017 $3.9925% (41%)100,000 .. 200,0000.21%02:54 (01:55)
134 Mars 2030 Mar 11, 2016 $4.99N/A (N/A)0 .. 20,0000%00:00 (00:00)
135 Villagers Mar 25, 2016 $19.9925% (40%)0 .. 20,0000%00:00 (00:00)
136 Wars of Napoleon Dec 3, 2015 $39.9925% (40%)0 .. 20,0000%00:00 (00:00)
137 Red Goddess: Inner World Sep 1, 2015 $9.9925% (39%/53%)0 .. 20,0000%00:00 (00:00)
138 Zombie Apocalypse: Escape The Undead City Nov 25, 2013 $0.9924% (37%)0 .. 20,0000%00:00 (00:00)
139 Sim Junta Aug 18, 2015 $0.4924% (35%)0 .. 20,0000%00:00 (00:00)
140 Grizzly Valley Apr 23, 2016 $0.4923% (32%)100,000 .. 200,0000%00:00 (00:00)
141 Feudalism Jun 14, 2016 $14.99N/A (N/A)0 .. 20,0000%00:00 (00:00)
142 NightZ Feb 14, 2017 $0.9922% (26%)20,000 .. 50,0000%00:00 (00:00)
143 Kabitis Jun 2, 2016 $1.9921% (18%)50,000 .. 100,0000%00:00 (00:00)
144 Uprising44: The Silent Shadows Apr 18, 2014 $1.99N/A (N/A)0 .. 20,0000%00:00 (00:00)
145 Iron Soul Feb 26, 2014 $4.9921% (9%)0 .. 20,0000%00:00 (00:00)
146 Russian Front Jul 23, 2015 $14.99N/A (N/A)0 .. 20,0000%00:00 (00:00)
147 Super Dungeon Bros Nov 1, 2016 $19.99N/A (N/A)0 .. 20,0000%00:00 (00:00)
148 Avoid - Sensory Overload Apr 8, 2014 $4.99N/A (N/A)20,000 .. 50,0002.33%03:32 (01:10)
149 Yar's Revenge Apr 28, 2011 $9.99N/A (N/A/56%)0 .. 20,0000%00:00 (00:00)
150 Porradaria Upgrade Oct 2, 2013 $4.99N/A (N/A)20,000 .. 50,0000%00:00 (00:00)
151 Bio Menace Aug 3, 1993 N/AN/A (N/A)0 .. 20,0000%00:00 (00:00)
152 LUXIS Oct 26, 2016 $4.99N/A (N/A)0 .. 20,0000%00:00 (00:00)
153 Wave of Darkness Nov 5, 2015 $29.99N/A (N/A)0 .. 20,0000%00:00 (00:00)
154 Pure Chess Grandmaster Edition Sep 9, 2016 $15.99N/A (N/A)0 .. 20,0000%00:00 (00:00)
155 ABO MANDO Dec 31, 2015 $0.99N/A (N/A)20,000 .. 50,0000%00:00 (00:00)
156 Sam & Max 104: Abe Lincoln Must Die! Feb 22, 2007 $19.99N/A (N/A)50,000 .. 100,0000%00:00 (00:00)
157 Anarcute Jul 12, 2016 $14.99N/A (N/A/79%)0 .. 20,0000%00:00 (00:00)
158 Doomed Kingdoms Dec 12, 2016 $3.99N/A (N/A)100,000 .. 200,0000%00:00 (00:00)
159 TASTEE: Lethal Tactics May 10, 2016 $14.99N/A (N/A)20,000 .. 50,0000%00:00 (00:00)
160 Road Works Feb 15, 2014 $7.99N/A (N/A)0 .. 20,0000%00:00 (00:00)
161 Viking Squad Oct 4, 2016 $14.99N/A (N/A)0 .. 20,0000%00:00 (00:00)
162 Frontline : Road to Moscow Aug 8, 2014 $9.99N/A (N/A)0 .. 20,0000%00:00 (00:00)
163 Zoo Empire Aug 1, 2004 $6.99N/A (N/A/59%)0 .. 20,0003.23%00:04 (00:01)
164 Red Game Without A Great Name Dec 9, 2015 $2.99N/A (N/A/55%)20,000 .. 50,0000%00:00 (00:00)
165 Scary Girl Apr 9, 2012 $6.99N/A (N/A)0 .. 20,0000%00:00 (00:00)
166 Driftwatch VR Dec 1, 2016 $2.99N/A (N/A)0 .. 20,0000%00:00 (00:00)
167 Board Defenders Sep 6, 2016 $4.99N/A (N/A)0 .. 20,0000%00:00 (00:00)
168 HitBox Jan 30, 2017 FreeN/A (N/A)20,000 .. 50,0000%00:00 (00:00)
169 Cavernus Jul 5, 2016 $1.99N/A (N/A)0 .. 20,0000%00:00 (00:00)
170 Monster Challenge Circus May 15, 2014 $4.99N/A (N/A)0 .. 20,0000%00:00 (00:00)
171 CDF Ghostship Jun 26, 2015 $9.99N/A (N/A)0 .. 20,0000%00:00 (00:00)
172 Acorn Assault: Rodent Revolution Mar 2, 2016 $9.99N/A (N/A)0 .. 20,0000%00:00 (00:00)
173 Starscape Mar 27, 2003 $7.99N/A (N/A)20,000 .. 50,0000%00:00 (00:00)
174 Ravenmark: Scourge of Estellion Sep 10, 2015 $14.99N/A (N/A/75%)0 .. 20,0000%00:00 (00:00)
175 Kaiju Panic Oct 9, 2015 $9.99N/A (N/A)0 .. 20,0000%00:00 (00:00)
176 Mystik Belle May 15, 2015 $14.99N/A (N/A)0 .. 20,0000%00:00 (00:00)
177 Plancon: Space Conflict Aug 8, 2016 $6.99N/A (N/A)20,000 .. 50,0000%00:00 (00:00)
178 El Matador Sep 25, 2006 $3.99N/A (N/A/54%)20,000 .. 50,0000%00:00 (00:00)
179 Fray: Reloaded Edition Jun 19, 2012 N/AN/A (N/A/27%)0 .. 20,0000%00:00 (00:00)
180 Magical Brickout Oct 17, 2016 $7.99N/A (N/A)0 .. 20,0000%00:00 (00:00)
181 Monuments of Mars Jan 1, 1990 N/AN/A (N/A)50,000 .. 100,0000%00:00 (00:00)
182 Crystal Rift Mar 30, 2016 $9.99N/A (N/A)0 .. 20,0000%00:00 (00:00)
183 Leap Up no jutsu Dec 30, 2016 $0.99N/A (N/A)20,000 .. 50,0001.43%01:00 (00:20)
184 Lost Sea Jul 5, 2016 $14.99N/A (N/A)0 .. 20,0000%00:00 (00:00)
185 Gold Rush! Classic Dec 23, 1988 $2.99N/A (N/A)200,000 .. 500,0000.23%04:01 (02:40)
186 Steam Squad Jul 28, 2016 $17.99N/A (N/A)0 .. 20,0000%00:00 (00:00)
187 MDK2 HD Jul 30, 2012 $14.99N/A (N/A/73%)0 .. 20,0000%00:00 (00:00)
188 Xenophage: Alien Bloodsport Dec 29, 1995 N/AN/A (N/A)20,000 .. 50,0000%00:00 (00:00)
189 Garden Rescue Feb 2, 2015 $3.99N/A (N/A)100,000 .. 200,0000%00:00 (00:00)
190 EPOCH Jun 5, 2014 $1.99N/A (N/A)0 .. 20,0000%00:00 (00:00)
191 Crusaders: Thy Kingdom Come Oct 8, 2009 $2.49N/A (N/A)20,000 .. 50,0000%00:00 (00:00)
192 Heroes of Normandie Oct 1, 2015 $29.99N/A (N/A/65%)0 .. 20,0000%00:00 (00:00)
193 Civil War: 1862 Oct 6, 2016 $9.99N/A (N/A)0 .. 20,0000%00:00 (00:00)
194 We Are Legion Aug 7, 2015 $9.99N/A (N/A)20,000 .. 50,0000%00:00 (00:00)
195 Decisive Campaigns: The Blitzkrieg from Warsaw to Paris Aug 26, 2010 $9.59N/A (N/A)0 .. 20,00012.5%00:08 (00:02)
196 Tinertia Sep 3, 2015 $11.99N/A (N/A)0 .. 20,0000%00:00 (00:00)
197 Brigade E5: New Jagged Union Oct 17, 2006 $3.99N/A (N/A/41%)0 .. 20,0000%00:00 (00:00)
198 Pills4Skills Jan 25, 2016 $2.99N/A (N/A)0 .. 20,0000%00:00 (00:00)
199 LocoCycle Feb 14, 2014 $9.99N/A (N/A)0 .. 20,0000%00:00 (00:00)
200 Steamalot: Epoch's Journey Aug 31, 2015 $4.99N/A (N/A)0 .. 20,0000%00:00 (00:00)
201 UFHO2 Apr 1, 2014 FreeN/A (N/A)20,000 .. 50,0000%00:00 (00:00)
202 Disney Tangled Nov 19, 2010 $19.99N/A (N/A)0 .. 20,0000%00:00 (00:00)
203 #KILLALLZOMBIES Aug 10, 2016 $4.99N/A (N/A)20,000 .. 50,0000%00:00 (00:00)
204 Alone in the Dark: Illumination Jun 11, 2015 $19.99N/A (N/A)0 .. 20,0000%00:00 (00:00)
205 Decisive Campaigns: Case Blue Jul 16, 2012 $9.59N/A (N/A)0 .. 20,0000%00:00 (00:00)
206 Watching Grass Grow In VR - The Game Aug 21, 2016 $4.99N/A (N/A)0 .. 20,0000%00:00 (00:00)
207 Disney's Chicken Little: Ace in Action Dec 7, 2006 $19.99N/A (N/A)0 .. 20,0000%00:00 (00:00)
208 Graviteam Tactics: Mius-Front Mar 4, 2016 $34.99N/A (N/A)0 .. 20,00016.67%15:04 (05:01)
209 Navpoint Sep 23, 2015 $4.99N/A (N/A)0 .. 20,0000%00:00 (00:00)
210 Clockwork Empires Oct 26, 2016 $29.99N/A (N/A/58%)20,000 .. 50,0000%00:00 (00:00)
211 ZombieZoid Zenith Sep 30, 2015 $5.99N/A (N/A)0 .. 20,0000%00:00 (00:00)
212 Leviathan Starblade Nov 3, 2016 $2.99N/A (N/A)0 .. 20,0000%00:00 (00:00)
213 Skyhook May 17, 2016 $9.99N/A (N/A)0 .. 20,0000%00:00 (00:00)
214 Hyperspace Pinball Sep 30, 2015 $2.99N/A (N/A)0 .. 20,0000%00:00 (00:00)
215 Time of Fury Jul 18, 2014 $4.99N/A (N/A)0 .. 20,0000%00:00 (00:00)
216 JUDGEMENT SILVERSWORD - Resurrection - Sep 18, 2015 $4.99N/A (N/A)0 .. 20,0000%00:00 (00:00)
217 Die for the Empire Oct 7, 2016 $4.99N/A (N/A)0 .. 20,0000%00:00 (00:00)
218 Desert Law Apr 29, 2005 $2.99N/A (N/A)20,000 .. 50,0000%00:00 (00:00)
219 Seven Kingdoms 2 HD Feb 4, 2015 $9.99N/A (N/A)20,000 .. 50,0000%00:00 (00:00)
220 The Sun at Night Aug 1, 2014 $4.99N/A (N/A/59%)0 .. 20,0000%00:00 (00:00)
221 Zombies on a Plane Mar 25, 2016 $4.99N/A (N/A)20,000 .. 50,0000%00:00 (00:00)
222 Space Ace Apr 29, 1984 $9.99N/A (N/A)0 .. 20,0000%00:00 (00:00)
223 ARK BOX Unlimited Nov 29, 2016 $4.99N/A (N/A)0 .. 20,0000%00:00 (00:00)
224 AirMech Command Mar 8, 2017 $19.99N/A (N/A)0 .. 20,0000%00:00 (00:00)
225 Crow Oct 6, 2014 $1.99N/A (N/A)20,000 .. 50,0000%00:00 (00:00)
226 APOX Jan 20, 2011 $14.99N/A (N/A/48%)20,000 .. 50,0000%00:00 (00:00)
227 Carnivore Land Sep 15, 2015 $7.99N/A (N/A)0 .. 20,0000%00:00 (00:00)
228 TWINKLE STAR SPRITES May 26, 2016 $7.99N/A (N/A)20,000 .. 50,0000%00:00 (00:00)
229 Cuban Missile Crisis: Ice Crusade Jul 29, 2005 $4.99N/A (N/A)20,000 .. 50,0000%00:00 (00:00)
230 Lew Pulsipher's Doomstar Sep 16, 2016 $9.99N/A (N/A)0 .. 20,0000%00:00 (00:00)
231 Disney's Chicken Little Oct 20, 2005 $9.99N/A (N/A)0 .. 20,0000%00:00 (00:00)
232 Rocko's Quest Jul 30, 2003 $4.99N/A (N/A/41%)0 .. 20,0000%00:00 (00:00)
233 WinKings Oct 28, 2016 $4.99N/A (N/A)0 .. 20,0000%00:00 (00:00)
234 Dragon's Lair 2: Time Warp Jun 16, 1991 $9.99N/A (N/A)0 .. 20,0000%00:00 (00:00)
235 Jurassic Island: The Dinosaur Zoo Jun 11, 2015 $3.99N/A (N/A)0 .. 20,0000%00:00 (00:00)
236 Twixel Nov 18, 2016 $1.99N/A (N/A)0 .. 20,0000%00:00 (00:00)
237 The Body Changer Oct 15, 2015 $9.99N/A (N/A)0 .. 20,0000%00:00 (00:00)
238 World War 2: Time of Wrath Jun 15, 2009 $4.99N/A (N/A)20,000 .. 50,0000%00:00 (00:00)
239 Rush for gold: Alaska Jan 14, 2016 $3.99N/A (N/A)20,000 .. 50,0000.26%00:59 (00:19)
240 US and THEM Mar 8, 2010 $2.99N/A (N/A)20,000 .. 50,0000%00:00 (00:00)
241 DEFCON VR Feb 15, 2017 FreeN/A (N/A/84%)0 .. 20,0004%00:43 (00:14)
242 Graveyard Shift Oct 20, 2016 $1.99N/A (N/A)0 .. 20,0000%00:00 (00:00)
243 Disney Alice in Wonderland Mar 2, 2010 $19.99N/A (N/A/63%)0 .. 20,0000%00:00 (00:00)
244 Super Rad Raygun Nov 15, 2016 $4.99N/A (N/A/64%)0 .. 20,0000%00:00 (00:00)
245 Marc Eckō's Getting Up: Contents Under Pressure Feb 14, 2006 $14.99N/A (N/A/69%)50,000 .. 100,0000.81%00:05 (00:01)
246 Armed and Dangerous Dec 2, 2003 $5.99N/A (N/A/78%)20,000 .. 50,0000%00:00 (00:00)
247 Final Core Jan 11, 2017 $4.99N/A (N/A)0 .. 20,0000%00:00 (00:00)
248 Spirit of War Mar 12, 2015 $9.99N/A (N/A)20,000 .. 50,0000%00:00 (00:00)
249 Run or Die Dec 11, 2014 $4.99N/A (N/A)20,000 .. 50,0000%00:00 (00:00)

Tags over time:

Access restricted.

This feature is only available to users with special access rights. Sorry.

If you want to proceed, you need to register or log in first and then back Steam Spy on Patreon. Look for Indie or Pro pledge.

Don't forget to use the same email as on Steam Spy!

Owners of this game also own:

Access restricted.

This feature is only available to users with special access rights. Sorry.

If you want to proceed, you need to register or log in first and then back Steam Spy on Patreon. Look for Indie or Pro pledge.

Don't forget to use the same email as on Steam Spy!

Playtime distribution:

Access restricted.

This feature is only available to users with special access rights. Sorry.

If you want to proceed, you need to register or log in first and then back Steam Spy on Patreon. Look for Indie or Pro pledge.

Don't forget to use the same email as on Steam Spy!

Playtime (2 weeks):

Access restricted.

This feature is only available to users with special access rights. Sorry.

If you want to proceed, you need to register or log in first and then back Steam Spy on Patreon. Look for Indie or Pro pledge.

Don't forget to use the same email as on Steam Spy!

User reviews:

Login required.

Please register or log in to see this information.